Time;durP1;ratioP1;P1;durP2;ratioP2;P2;SDS_P1;SDS_P2;PMS_P1;PMS_P2;Temp;Humidity;BMP_temperature;BMP_pressure;BME280_temperature;BME280_humidity;BME280_pressure;Samples;Min_cycle;Max_cycle;Signal;HPM_P1;HPM_P2
2021/12/08 00:01:29;;;;;;;9.20;4.65;;;2.50;99.90;;;;;;5058136;28;20084;-68
2021/12/08 00:03:55;;;;;;;14.70;5.15;;;2.40;99.90;;;;;;5054909;28;20081;-68
2021/12/08 00:06:21;;;;;;;14.50;5.60;;;2.40;99.90;;;;;;5051912;28;20025;-68
2021/12/08 00:09:01;;;;;;;10.60;5.40;;;2.30;99.90;;;;;;5032247;28;20049;-69
2021/12/08 00:14:11;;;;;;;14.05;5.80;;;2.20;99.90;;;;;;5070220;28;20131;-68
2021/12/08 00:16:37;;;;;;;11.05;5.75;;;2.30;99.90;;;;;;5054934;28;20461;-68
2021/12/08 00:19:03;;;;;;;11.13;5.78;;;2.30;99.90;;;;;;5051462;28;20053;-69
2021/12/08 00:21:28;;;;;;;14.07;5.65;;;2.30;99.90;;;;;;5060889;28;20078;-69
2021/12/08 00:23:54;;;;;;;12.13;5.25;;;2.30;99.90;;;;;;5025814;28;20432;-68
2021/12/08 00:26:20;;;;;;;11.10;5.53;;;2.40;99.90;;;;;;5062663;28;20116;-69
2021/12/08 00:28:46;;;;;;;13.52;6.05;;;2.40;99.90;;;;;;5047604;28;20045;-69
2021/12/08 00:31:12;;;;;;;11.65;6.20;;;2.40;99.90;;;;;;5049353;28;20445;-68
2021/12/08 00:33:37;;;;;;;22.42;6.28;;;2.40;99.90;;;;;;5046282;28;20044;-69
2021/12/08 00:36:05;;;;;;;17.20;6.82;;;2.40;99.90;;;;;;5064209;28;20029;-68
2021/12/08 00:38:31;;;;;;;16.65;6.40;;;2.50;99.90;;;;;;5049883;28;20051;-69
2021/12/08 00:40:57;;;;;;;12.05;5.75;;;2.40;99.90;;;;;;5032217;28;20041;-68
2021/12/08 00:43:23;;;;;;;20.60;6.32;;;2.40;99.90;;;;;;5050756;28;20056;-69
2021/12/08 00:45:50;;;;;;;15.25;6.50;;;2.40;99.90;;;;;;5068213;28;20040;-68
2021/12/08 00:48:16;;;;;;;12.07;6.10;;;2.40;99.90;;;;;;5068703;28;20090;-69
2021/12/08 00:50:42;;;;;;;15.85;6.63;;;2.40;99.90;;;;;;5065127;28;20033;-69
2021/12/08 00:53:08;;;;;;;11.48;5.85;;;2.50;99.90;;;;;;5053361;28;20079;-69
2021/12/08 00:55:36;;;;;;;14.65;5.75;;;2.50;99.90;;;;;;5049429;28;20616;-68
2021/12/08 00:58:02;;;;;;;16.60;6.50;;;2.50;99.90;;;;;;5048963;28;20414;-68
2021/12/08 01:00:35;;;;;;;17.77;6.88;;;2.50;99.90;;;;;;5049076;28;20434;-68
2021/12/08 01:03:01;;;;;;;15.73;6.50;;;2.60;99.90;;;;;;5053845;28;20102;-68
2021/12/08 01:05:35;;;;;;;14.30;6.28;;;2.60;99.90;;;;;;5046643;28;20037;-68
2021/12/08 01:08:01;;;;;;;15.13;6.97;;;2.60;99.90;;;;;;5037235;28;20049;-68
2021/12/08 01:10:28;;;;;;;12.60;6.53;;;2.60;99.90;;;;;;5032431;28;20044;-68
2021/12/08 01:12:55;;;;;;;14.02;6.70;;;2.70;99.90;;;;;;5049676;28;20040;-68
2021/12/08 01:15:22;;;;;;;12.30;6.15;;;2.70;99.90;;;;;;5049284;28;20059;-68
2021/12/08 01:17:48;;;;;;;13.55;6.30;;;2.70;99.90;;;;;;5032991;28;20147;-69
2021/12/08 01:20:15;;;;;;;12.55;6.07;;;2.70;99.90;;;;;;5047768;28;20037;-69
2021/12/08 01:22:42;;;;;;;12.73;5.95;;;2.70;99.90;;;;;;5041025;28;20056;-69
2021/12/08 01:25:08;;;;;;;11.73;6.00;;;2.80;99.90;;;;;;5051411;28;20055;-69
2021/12/08 01:27:34;;;;;;;15.52;6.50;;;2.90;99.90;;;;;;5059150;28;20440;-68
2021/12/08 01:30:01;;;;;;;13.30;6.10;;;2.90;99.90;;;;;;5054182;28;20052;-68
2021/12/08 01:32:27;;;;;;;12.80;5.93;;;2.90;99.90;;;;;;5031282;28;20120;-69
2021/12/08 01:34:53;;;;;;;11.43;5.88;;;2.90;99.90;;;;;;5052739;28;20152;-69
2021/12/08 01:37:20;;;;;;;12.38;6.10;;;3.00;99.90;;;;;;5049808;28;20114;-68
2021/12/08 01:39:46;;;;;;;11.73;6.13;;;3.00;99.90;;;;;;5030389;28;20539;-68
2021/12/08 01:42:17;;;;;;;15.90;6.03;;;3.10;99.90;;;;;;5031254;28;20226;-68
2021/12/08 01:47:28;;;;;;;11.57;5.80;;;3.10;99.90;;;;;;5062664;28;20040;-69
2021/12/08 01:49:54;;;;;;;13.93;6.15;;;3.20;99.90;;;;;;5066125;28;20131;-69
2021/12/08 01:52:20;;;;;;;13.18;6.30;;;3.20;99.90;;;;;;5035135;28;20132;-69
2021/12/08 01:54:46;;;;;;;11.95;6.00;;;3.20;99.90;;;;;;5024019;28;20071;-69
2021/12/08 01:57:12;;;;;;;11.77;5.95;;;3.20;99.90;;;;;;5041207;28;20485;-69
2021/12/08 01:59:38;;;;;;;12.68;6.07;;;3.30;99.90;;;;;;5050294;28;20037;-69
2021/12/08 02:02:05;;;;;;;11.38;6.15;;;3.30;99.90;;;;;;5044448;28;20473;-69
2021/12/08 02:04:30;;;;;;;15.38;6.82;;;3.30;99.90;;;;;;5047213;28;20039;-69
2021/12/08 02:06:57;;;;;;;12.05;6.85;;;3.30;99.90;;;;;;5062734;28;20046;-69
2021/12/08 02:09:23;;;;;;;10.73;5.72;;;3.40;99.90;;;;;;5053139;28;20057;-69
2021/12/08 02:11:53;;;;;;;10.90;6.30;;;3.40;99.90;;;;;;5068960;28;20090;-68
2021/12/08 02:14:19;;;;;;;11.40;5.97;;;3.40;99.90;;;;;;5048997;28;20041;-68
2021/12/08 02:16:46;;;;;;;11.52;5.93;;;3.50;99.90;;;;;;5048705;28;20041;-68
2021/12/08 02:19:12;;;;;;;10.85;6.13;;;3.50;99.90;;;;;;5047445;28;20037;-68
2021/12/08 02:21:41;;;;;;;11.30;5.90;;;3.50;99.90;;;;;;5048291;28;20118;-68
2021/12/08 02:24:12;;;;;;;11.52;6.30;;;3.50;99.90;;;;;;5059343;28;20050;-68
2021/12/08 02:26:39;;;;;;;13.27;6.65;;;3.50;99.90;;;;;;5053788;28;20040;-68
2021/12/08 02:29:11;;;;;;;12.88;6.00;;;3.50;99.90;;;;;;5048270;28;20076;-68
2021/12/08 02:47:54;;;;;;;10.40;5.97;;;3.50;99.90;;;;;;5047967;28;20080;-68
2021/12/08 02:50:30;;;;;;;10.45;5.90;;;3.50;99.90;;;;;;5028675;28;20476;-68
2021/12/08 02:52:58;;;;;;;11.98;6.30;;;3.60;99.90;;;;;;5050442;28;20055;-68
2021/12/08 02:55:25;;;;;;;13.02;6.65;;;3.60;99.90;;;;;;5046275;28;20098;-68
2021/12/08 02:57:51;;;;;;;12.02;6.03;;;3.60;99.90;;;;;;5030199;28;20056;-68
2021/12/08 03:00:23;;;;;;;11.48;6.13;;;3.60;99.90;;;;;;5030268;28;20481;-68
2021/12/08 03:02:53;;;;;;;9.90;5.75;;;3.60;99.90;;;;;;5046161;28;20052;-68
2021/12/08 03:05:20;;;;;;;12.20;5.90;;;3.70;99.90;;;;;;5046464;28;20128;-68
2021/12/08 03:07:46;;;;;;;11.13;5.65;;;3.70;99.90;;;;;;5048904;28;20119;-68
2021/12/08 03:10:15;;;;;;;11.85;6.07;;;3.70;99.90;;;;;;5047688;28;20040;-68
2021/12/08 03:12:42;;;;;;;12.35;6.20;;;3.70;99.90;;;;;;5038735;28;20405;-68
2021/12/08 03:15:10;;;;;;;10.60;5.97;;;3.70;99.90;;;;;;5040039;28;20075;-68
2021/12/08 03:17:36;;;;;;;11.48;5.93;;;3.70;99.90;;;;;;5047294;28;20106;-68
2021/12/08 03:20:09;;;;;;;10.20;5.97;;;3.70;99.90;;;;;;5049039;28;20120;-68
2021/12/08 03:22:40;;;;;;;9.82;6.18;;;3.80;99.90;;;;;;5065575;28;20044;-68
2021/12/08 03:25:08;;;;;;;12.77;6.28;;;3.80;99.90;;;;;;5053088;28;20398;-68
2021/12/08 03:27:38;;;;;;;12.02;7.30;;;3.80;99.90;;;;;;5051842;28;20371;-68
2021/12/08 03:30:15;;;;;;;11.80;7.13;;;3.80;99.90;;;;;;5051429;28;20041;-68
2021/12/08 03:32:41;;;;;;;13.48;7.45;;;3.70;99.90;;;;;;5043757;28;20045;-68
2021/12/08 03:35:15;;;;;;;16.20;7.63;;;3.80;99.90;;;;;;5060341;28;20080;-68
2021/12/08 03:37:44;;;;;;;13.93;8.15;;;3.70;99.90;;;;;;5055709;28;20048;-68
2021/12/08 03:40:17;;;;;;;13.30;7.65;;;3.70;99.90;;;;;;5051234;28;20124;-68
2021/12/08 03:42:44;;;;;;;12.10;8.13;;;3.80;99.90;;;;;;5055714;28;20385;-68
2021/12/08 03:45:18;;;;;;;14.80;8.50;;;3.80;99.90;;;;;;5050421;28;20049;-68
2021/12/08 03:47:47;;;;;;;14.68;8.95;;;3.80;99.90;;;;;;5051471;28;20044;-68
2021/12/08 03:50:16;;;;;;;12.55;8.40;;;3.80;99.90;;;;;;5065993;28;20128;-68
2021/12/08 03:52:42;;;;;;;18.15;9.77;;;3.80;99.90;;;;;;5034246;28;20049;-68
2021/12/08 03:55:13;;;;;;;12.80;8.68;;;3.80;99.90;;;;;;5062862;28;20047;-68
2021/12/08 03:57:39;;;;;;;16.92;9.75;;;3.90;99.90;;;;;;5053930;28;20375;-68
2021/12/08 04:00:09;;;;;;;17.80;9.23;;;3.90;99.90;;;;;;5050422;28;20440;-68
2021/12/08 04:02:35;;;;;;;14.93;9.88;;;3.90;99.90;;;;;;5051160;28;20397;-68
2021/12/08 04:05:03;;;;;;;17.58;10.75;;;3.90;99.90;;;;;;5049025;28;20043;-68
2021/12/08 04:07:28;;;;;;;14.88;10.05;;;4.00;99.90;;;;;;5038051;28;20182;-68
2021/12/08 04:09:54;;;;;;;17.58;10.38;;;4.00;99.90;;;;;;5051367;28;20041;-68
2021/12/08 04:12:21;;;;;;;19.20;10.30;;;4.00;99.90;;;;;;5050088;28;20103;-68
2021/12/08 04:14:59;;;;;;;13.05;10.40;;;4.00;99.90;;;;;;5050217;28;20067;-68
2021/12/08 04:17:36;;;;;;;15.80;10.43;;;4.10;99.90;;;;;;5051922;28;20173;-68
2021/12/08 04:20:08;;;;;;;16.35;10.45;;;4.00;99.90;;;;;;5037790;28;20063;-68
2021/12/08 04:22:38;;;;;;;16.35;10.88;;;4.10;99.90;;;;;;5050607;28;20051;-68
2021/12/08 04:25:08;;;;;;;15.50;11.25;;;4.10;99.90;;;;;;5059051;28;20370;-68
2021/12/08 04:27:36;;;;;;;16.15;12.02;;;4.10;99.90;;;;;;5065601;28;20494;-68
2021/12/08 04:30:08;;;;;;;17.75;10.82;;;4.20;99.90;;;;;;5051809;28;20037;-68
2021/12/08 04:32:34;;;;;;;19.60;10.80;;;4.20;99.90;;;;;;5060130;28;20405;-68
2021/12/08 04:35:04;;;;;;;17.15;11.35;;;4.20;99.90;;;;;;5050919;28;20119;-68
2021/12/08 04:37:33;;;;;;;18.88;12.65;;;4.20;99.90;;;;;;5032806;28;20052;-68
2021/12/08 04:42:54;;;;;;;15.50;11.18;;;4.30;99.90;;;;;;5067098;28;20084;-68
2021/12/08 04:45:30;;;;;;;16.60;11.38;;;4.30;99.90;;;;;;5052256;28;20124;-69
2021/12/08 04:53:58;;;;;;;14.77;11.98;;;4.40;99.90;;;;;;5051634;28;20057;-69
2021/12/08 05:02:18;;;;;;;22.83;12.07;;;4.50;99.90;;;;;;5049919;28;20045;-68
2021/12/08 05:05:14;;;;;;;21.52;12.25;;;4.50;99.90;;;;;;5047893;28;20052;-69
2021/12/08 05:10:16;;;;;;;17.98;11.55;;;4.50;99.90;;;;;;5058520;28;20026;-68
2021/12/08 05:12:43;;;;;;;17.40;12.05;;;4.50;99.90;;;;;;5066441;28;20044;-68
2021/12/08 05:15:21;;;;;;;16.27;11.35;;;4.60;99.90;;;;;;5047899;28;20514;-69
2021/12/08 05:18:05;;;;;;;15.32;11.38;;;4.60;99.90;;;;;;5049411;28;20041;-68
2021/12/08 05:20:51;;;;;;;20.25;11.35;;;4.60;99.90;;;;;;5063388;28;21391;-68
2021/12/08 05:23:23;;;;;;;;;;;4.70;99.90;;;;;;5058536;28;20049;-69
2021/12/08 05:25:50;;;;;;;17.83;11.27;;;4.70;99.90;;;;;;5051404;28;19932;-69
2021/12/08 05:28:20;;;;;;;18.40;11.65;;;4.70;99.90;;;;;;5062719;28;20029;-69
2021/12/08 05:30:57;;;;;;;16.73;11.82;;;4.80;99.90;;;;;;5048871;28;20055;-68
2021/12/08 05:33:24;;;;;;;16.60;11.40;;;4.80;99.90;;;;;;5049537;28;20045;-68
2021/12/08 05:35:51;;;;;;;19.00;12.43;;;4.80;99.90;;;;;;5048251;28;20077;-68
2021/12/08 05:38:19;;;;;;;15.65;11.52;;;4.90;99.90;;;;;;5031503;28;20047;-68
2021/12/08 05:40:59;;;;;;;16.38;11.38;;;4.90;99.90;;;;;;5048463;28;20041;-68
2021/12/08 05:43:25;;;;;;;18.95;12.02;;;4.90;99.90;;;;;;5029801;28;20462;-68
2021/12/08 05:45:53;;;;;;;19.67;11.85;;;4.90;99.90;;;;;;5034520;28;20041;-68
2021/12/08 05:48:19;;;;;;;14.68;10.95;;;5.00;99.90;;;;;;5032080;28;20079;-68
2021/12/08 05:51:03;;;;;;;16.70;11.95;;;5.10;99.90;;;;;;5051466;28;20044;-68
2021/12/08 05:53:30;;;;;;;18.60;11.40;;;5.10;99.90;;;;;;5060567;28;20518;-69
2021/12/08 05:55:56;;;;;;;19.15;10.57;;;5.10;99.90;;;;;;5031475;28;20053;-69
2021/12/08 05:58:24;;;;;;;13.20;9.73;;;5.20;99.90;;;;;;5050704;28;20139;-69
2021/12/08 06:01:01;;;;;;;15.52;9.55;;;6.40;99.90;;;;;;5054296;28;20693;-69
2021/12/08 06:03:27;;;;;;;15.35;10.13;;;5.30;99.90;;;;;;5047776;28;20049;-69
2021/12/08 06:05:54;;;;;;;15.88;9.30;;;5.30;99.90;;;;;;5029301;28;20102;-69
2021/12/08 06:08:21;;;;;;;14.15;9.65;;;5.40;99.90;;;;;;5048135;28;20501;-69
2021/12/08 06:10:48;;;;;;;14.02;9.80;;;5.40;99.90;;;;;;5063545;28;20045;-69
2021/12/08 06:13:16;;;;;;;14.65;9.77;;;5.40;99.90;;;;;;5063420;28;20036;-69
2021/12/08 06:15:44;;;;;;;16.30;9.73;;;5.40;99.90;;;;;;5065074;28;20052;-69
2021/12/08 06:18:10;;;;;;;17.38;10.07;;;5.50;99.90;;;;;;5065194;28;20041;-69
2021/12/08 06:20:37;;;;;;;15.27;9.55;;;5.50;99.90;;;;;;5047646;28;20512;-69
2021/12/08 06:23:05;;;;;;;13.20;8.90;;;5.50;99.90;;;;;;5039337;28;20056;-69
2021/12/08 06:25:32;;;;;;;14.50;8.90;;;5.50;99.90;;;;;;5046735;28;20485;-69
2021/12/08 06:27:58;;;;;;;13.43;9.32;;;5.50;99.90;;;;;;5048185;28;20124;-70
2021/12/08 06:30:28;;;;;;;16.02;9.88;;;5.50;99.90;;;;;;5047798;28;20120;-69
2021/12/08 06:32:54;;;;;;;14.50;9.15;;;6.20;99.90;;;;;;5047209;28;20049;-69
2021/12/08 06:35:42;;;;;;;14.40;9.82;;;5.90;99.90;;;;;;5045978;28;20107;-69
2021/12/08 06:38:09;;;;;;;17.83;9.23;;;5.50;99.90;;;;;;5048307;28;20064;-70
2021/12/08 06:40:47;;;;;;;13.65;8.50;;;5.50;99.90;;;;;;5029206;28;20485;-71
2021/12/08 06:43:20;;;;;;;17.52;9.68;;;5.60;99.90;;;;;;5047729;28;20041;-70
2021/12/08 06:45:49;;;;;;;13.30;8.80;;;6.20;99.90;;;;;;5029993;28;20136;-70
2021/12/08 06:48:26;;;;;;;11.95;8.32;;;5.60;99.90;;;;;;5046663;28;20044;-70
2021/12/08 06:51:04;;;;;;;14.35;8.60;;;5.70;99.90;;;;;;5045615;28;20060;-70
2021/12/08 06:53:31;;;;;;;14.40;7.60;;;5.70;99.90;;;;;;5047690;28;20450;-70
2021/12/08 06:56:31;;;;;;;12.57;8.10;;;5.70;99.90;;;;;;5050544;28;20040;-70
2021/12/08 06:59:03;;;;;;;12.77;7.97;;;5.60;99.90;;;;;;5052947;28;20048;-69
2021/12/08 07:02:07;;;;;;;14.70;7.80;;;5.50;99.90;;;;;;5051371;28;20106;-69
2021/12/08 07:07:43;;;;;;;13.70;7.20;;;5.50;99.90;;;;;;5008333;28;20045;-72
2021/12/08 07:10:19;;;;;;;10.95;7.13;;;5.50;99.90;;;;;;5035278;28;20409;-71
2021/12/08 07:12:46;;;;;;;;;;;5.50;99.90;;;;;;5017463;28;20374;-71
2021/12/08 07:15:37;;;;;;;16.15;7.75;;;5.40;99.90;;;;;;5050426;28;20380;-72
2021/12/08 07:18:08;;;;;;;13.57;7.07;;;5.40;99.90;;;;;;5050001;28;20063;-71
2021/12/08 07:20:45;;;;;;;12.32;7.70;;;5.40;99.90;;;;;;5032136;28;20290;-72
2021/12/08 07:23:40;;;;;;;13.43;7.88;;;5.90;99.90;;;;;;5032731;28;20397;-72
2021/12/08 07:26:27;;;;;;;11.95;7.07;;;5.40;99.90;;;;;;5051231;28;20124;-72
2021/12/08 07:28:55;;;;;;;15.73;7.50;;;5.40;99.90;;;;;;5050185;28;20084;-72
2021/12/08 07:31:44;;;;;;;11.18;6.95;;;5.40;99.90;;;;;;5050510;28;20041;-71
2021/12/08 07:34:15;;;;;;;12.32;6.57;;;5.30;99.90;;;;;;5048641;28;20051;-71
2021/12/08 07:36:44;;;;;;;14.32;6.78;;;5.30;99.90;;;;;;5034274;28;20049;-71
2021/12/08 07:39:16;;;;;;;12.90;6.68;;;5.40;99.90;;;;;;5050238;28;20120;-72
2021/12/08 07:41:49;;;;;;;11.60;6.40;;;5.30;99.90;;;;;;5032744;28;20053;-72
2021/12/08 07:44:16;;;;;;;10.80;6.10;;;5.30;99.90;;;;;;5048970;28;20478;-72
2021/12/08 07:46:52;;;;;;;9.73;5.90;;;5.20;99.90;;;;;;5051356;28;20106;-72
2021/12/08 07:49:25;;;;;;;10.70;6.10;;;5.20;99.90;;;;;;5031528;28;20398;-72
2021/12/08 07:51:54;;;;;;;13.52;5.95;;;5.30;99.90;;;;;;5050131;28;20124;-70
2021/12/08 07:54:22;;;;;;;11.35;6.07;;;5.20;99.90;;;;;;5049831;28;20383;-70
2021/12/08 07:56:55;;;;;;;10.80;5.32;;;5.30;99.90;;;;;;5050180;28;20537;-70
2021/12/08 07:59:22;;;;;;;10.48;5.05;;;5.20;99.90;;;;;;5049691;28;20351;-71
2021/12/08 08:01:52;;;;;;;9.82;5.10;;;5.20;99.90;;;;;;5050918;28;20408;-71
2021/12/08 08:04:20;;;;;;;10.45;4.85;;;5.20;99.90;;;;;;5047775;28;20124;-70
2021/12/08 08:06:49;;;;;;;10.63;4.70;;;5.20;99.90;;;;;;5049858;28;20041;-71
2021/12/08 08:09:19;;;;;;;10.65;4.38;;;5.30;99.90;;;;;;5049565;28;20120;-71
2021/12/08 08:11:54;;;;;;;8.82;4.40;;;5.30;99.90;;;;;;5050423;28;20124;-70
2021/12/08 08:14:20;;;;;;;7.63;3.63;;;5.30;99.90;;;;;;5031494;28;20052;-70
2021/12/08 08:16:50;;;;;;;7.70;3.47;;;5.40;99.90;;;;;;5051134;28;20560;-70
2021/12/08 08:19:18;;;;;;;7.90;3.63;;;5.40;99.90;;;;;;5029519;28;20091;-71
2021/12/08 08:21:49;;;;;;;8.45;3.75;;;5.50;99.90;;;;;;5050451;28;20442;-70
2021/12/08 08:24:17;;;;;;;9.65;3.88;;;5.50;99.90;;;;;;5031493;28;20128;-71
2021/12/08 08:26:45;;;;;;;10.25;4.13;;;5.50;99.90;;;;;;5049934;28;20101;-71
2021/12/08 08:29:11;;;;;;;9.80;4.18;;;5.60;99.90;;;;;;5049692;28;20041;-72
2021/12/08 08:31:41;;;;;;;7.68;3.80;;;5.70;99.90;;;;;;5050083;28;20036;-70
2021/12/08 08:34:08;;;;;;;7.35;3.78;;;5.70;99.90;;;;;;5029867;28;20056;-71
2021/12/08 08:36:38;;;;;;;9.52;4.15;;;5.80;99.90;;;;;;5050347;28;20052;-71
2021/12/08 08:39:18;;;;;;;9.45;4.35;;;5.80;99.90;;;;;;5049780;28;20380;-72
2021/12/08 08:41:46;;;;;;;9.35;3.53;;;5.80;99.90;;;;;;5032044;28;20117;-71
2021/12/08 08:44:20;;;;;;;8.93;3.58;;;5.80;99.90;;;;;;5031437;28;20591;-71
2021/12/08 08:46:48;;;;;;;10.20;4.47;;;5.80;99.90;;;;;;5049379;28;20041;-71
2021/12/08 08:49:21;;;;;;;13.60;4.00;;;5.80;99.90;;;;;;5047962;28;20052;-72
2021/12/08 08:52:08;;;;;;;10.98;4.05;;;5.80;99.90;;;;;;5032099;28;20563;-71
2021/12/08 08:54:38;;;;;;;11.68;3.90;;;5.80;99.90;;;;;;5048620;28;20052;-71
2021/12/08 08:57:14;;;;;;;9.52;3.50;;;5.80;99.90;;;;;;5031571;28;20056;-74
2021/12/08 08:59:48;;;;;;;6.63;2.97;;;5.90;99.90;;;;;;5049417;28;20052;-73
2021/12/08 09:02:21;;;;;;;7.25;3.15;;;6.10;99.90;;;;;;5030758;28;20386;-72
2021/12/08 09:04:53;;;;;;;10.18;3.33;;;6.30;99.90;;;;;;5047939;28;20425;-71
2021/12/08 09:07:34;;;;;;;6.45;2.78;;;6.50;99.90;;;;;;5030391;28;20516;-73
2021/12/08 09:10:05;;;;;;;9.20;3.50;;;6.70;99.90;;;;;;5014969;28;20394;-71
2021/12/08 09:12:44;;;;;;;10.15;3.22;;;6.80;99.90;;;;;;5049203;28;20128;-72
2021/12/08 09:15:22;;;;;;;11.13;3.65;;;6.90;99.90;;;;;;5030549;28;20063;-72
2021/12/08 09:17:53;;;;;;;10.27;2.90;;;6.70;99.90;;;;;;5031312;28;20131;-72
2021/12/08 09:20:35;;;;;;;7.97;2.80;;;6.60;99.90;;;;;;5047725;28;20115;-72
2021/12/08 09:23:06;;;;;;;10.27;3.03;;;6.50;99.90;;;;;;5048647;28;20478;-72
2021/12/08 09:25:43;;;;;;;8.25;2.63;;;6.40;99.90;;;;;;5048148;28;20544;-72
2021/12/08 09:28:17;;;;;;;7.78;2.95;;;6.40;99.90;;;;;;5048370;28;20352;-72
2021/12/08 09:30:56;;;;;;;10.38;3.10;;;6.30;99.90;;;;;;5031411;28;20049;-72
2021/12/08 09:33:27;;;;;;;8.48;2.97;;;6.30;99.90;;;;;;5047850;28;20103;-72
2021/12/08 09:35:59;;;;;;;10.75;3.05;;;6.20;99.90;;;;;;5047121;28;20481;-71
2021/12/08 09:38:33;;;;;;;9.38;2.70;;;6.30;99.90;;;;;;5047710;28;20168;-72
2021/12/08 09:41:10;;;;;;;14.23;3.10;;;6.20;99.90;;;;;;5040296;28;20044;-70
2021/12/08 09:43:42;;;;;;;11.85;3.03;;;6.30;99.90;;;;;;5047611;28;20041;-71
2021/12/08 09:46:32;;;;;;;7.65;2.70;;;6.30;99.90;;;;;;5048916;28;20460;-72
2021/12/08 09:48:57;;;;;;;10.02;2.95;;;6.30;99.90;;;;;;5030141;28;20450;-72
2021/12/08 09:51:27;;;;;;;8.10;2.53;;;6.40;99.90;;;;;;5047774;28;20045;-72
2021/12/08 09:53:53;;;;;;;8.30;2.67;;;6.50;99.90;;;;;;5048162;28;20279;-72
2021/12/08 09:56:20;;;;;;;8.77;2.83;;;6.60;99.90;;;;;;5013577;28;20132;-73
2021/12/08 09:58:46;;;;;;;11.52;2.67;;;6.90;99.90;;;;;;5049475;28;20045;-72
2021/12/08 10:01:17;;;;;;;10.85;2.80;;;7.30;99.90;;;;;;5048872;28;20041;-72
2021/12/08 10:03:44;;;;;;;8.48;2.65;;;7.70;99.90;;;;;;5045738;28;20053;-72
2021/12/08 10:06:12;;;;;;;8.43;2.92;;;8.10;99.90;;;;;;5048535;28;20048;-72
2021/12/08 10:08:40;;;;;;;9.07;2.50;;;8.50;99.90;;;;;;5047662;28;20049;-73
2021/12/08 10:11:05;;;;;;;10.20;2.50;;;8.80;99.90;;;;;;5045765;28;20053;-72
2021/12/08 10:13:31;;;;;;;8.00;2.60;;;8.90;99.90;;;;;;5049141;28;20049;-73
2021/12/08 10:15:57;;;;;;;7.13;2.85;;;8.70;99.90;;;;;;5068229;28;20048;-71
2021/12/08 10:18:22;;;;;;;7.60;2.90;;;8.70;99.90;;;;;;5049308;28;20127;-71
2021/12/08 10:20:53;;;;;;;8.68;2.42;;;9.10;99.90;;;;;;5059673;28;20063;-72
2021/12/08 10:23:37;;;;;;;8.23;2.83;;;9.70;99.90;;;;;;5047865;28;20049;-72
2021/12/08 10:26:07;;;;;;;10.45;2.88;;;9.70;99.90;;;;;;5016769;28;20056;-72
2021/12/08 10:28:42;;;;;;;9.70;2.92;;;9.30;99.90;;;;;;5058224;28;20067;-73
2021/12/08 10:31:14;;;;;;;9.77;2.90;;;10.00;99.90;;;;;;5045073;28;20048;-72
2021/12/08 10:36:46;;;;;;;6.97;2.50;;;10.70;99.90;;;;;;5050737;28;20117;-73
2021/12/08 10:39:14;;;;;;;10.55;2.80;;;11.30;99.90;;;;;;5064017;28;20048;-73
2021/12/08 10:42:01;;;;;;;10.73;3.03;;;12.30;99.90;;;;;;5037176;28;20040;-72
2021/12/08 10:45:11;;;;;;;6.80;2.35;;;11.90;99.90;;;;;;5067421;28;20110;-72
2021/12/08 10:47:47;;;;;;;7.93;2.53;;;12.30;99.90;;;;;;5063629;28;20128;-70
2021/12/08 10:55:54;;;;;;;6.05;2.40;;;12.70;99.90;;;;;;5045866;28;20109;-71
2021/12/08 10:58:23;;;;;;;12.30;2.95;;;12.60;99.90;;;;;;5064192;28;20391;-71
2021/12/08 11:00:50;;;;;;;7.65;2.45;;;12.80;99.90;;;;;;5059797;28;20045;-71
2021/12/08 11:03:16;;;;;;;8.40;2.35;;;13.10;99.90;;;;;;5043433;28;20501;-70
2021/12/08 11:05:54;;;;;;;9.02;2.45;;;12.60;99.90;;;;;;5052134;28;20056;-70
2021/12/08 11:08:24;;;;;;;6.43;2.40;;;11.60;99.90;;;;;;5063028;28;20052;-71
2021/12/08 11:11:02;;;;;;;11.40;2.80;;;11.50;99.90;;;;;;5032659;28;20122;-70
2021/12/08 11:13:37;;;;;;;7.22;2.40;;;11.50;99.90;;;;;;5025406;28;20060;-70
2021/12/08 11:16:08;;;;;;;8.38;2.42;;;11.80;99.90;;;;;;5044835;28;20068;-71
2021/12/08 11:18:39;;;;;;;9.23;2.40;;;11.80;99.90;;;;;;5043630;28;20091;-69
2021/12/08 11:21:16;;;;;;;8.20;2.53;;;11.90;99.90;;;;;;5045782;28;20044;-71
2021/12/08 11:23:47;;;;;;;8.35;2.60;;;11.10;99.90;;;;;;5045020;28;20544;-71
2021/12/08 11:26:18;;;;;;;8.90;2.75;;;10.50;99.90;;;;;;5026489;28;20134;-71
2021/12/08 11:28:58;;;;;;;9.82;2.53;;;9.90;99.90;;;;;;5051406;28;20084;-70
2021/12/08 11:31:26;;;;;;;6.88;2.45;;;9.60;99.90;;;;;;5051330;28;20051;-70
2021/12/08 11:34:00;;;;;;;9.38;2.90;;;9.20;99.90;;;;;;5058097;28;20095;-70
2021/12/08 11:36:30;;;;;;;8.20;2.47;;;8.80;99.90;;;;;;5063007;28;20048;-70
2021/12/08 11:38:55;;;;;;;8.30;2.80;;;8.60;99.90;;;;;;5064341;28;20048;-70
2021/12/08 11:41:27;;;;;;;12.32;2.67;;;8.50;99.90;;;;;;5048886;28;20044;-71
2021/12/08 11:43:57;;;;;;;10.30;2.67;;;8.50;99.90;;;;;;5066762;28;20044;-71
2021/12/08 11:46:23;;;;;;;6.80;2.40;;;8.30;99.90;;;;;;5058360;28;20060;-72
2021/12/08 11:49:04;;;;;;;7.22;2.42;;;8.20;99.90;;;;;;5039474;28;20106;-72
2021/12/08 11:51:58;;;;;;;8.90;2.70;;;8.10;99.90;;;;;;5062292;28;20062;-74
2021/12/08 11:54:32;;;;;;;10.32;2.40;;;8.00;99.90;;;;;;5069208;28;20102;-72
2021/12/08 11:57:14;;;;;;;7.05;2.45;;;8.00;99.90;;;;;;5043284;28;20041;-72
2021/12/08 11:59:53;;;;;;;9.10;2.60;;;7.90;99.90;;;;;;5043989;28;20057;-72
2021/12/08 12:02:21;;;;;;;9.18;3.05;;;7.90;99.90;;;;;;5032616;28;20067;-72
2021/12/08 12:04:48;;;;;;;7.88;2.63;;;7.60;99.90;;;;;;5013334;28;20053;-72
2021/12/08 12:07:15;;;;;;;8.40;2.88;;;7.50;99.90;;;;;;5051973;28;20112;-73
2021/12/08 12:09:42;;;;;;;10.88;3.42;;;7.40;99.90;;;;;;5057161;28;20041;-73
2021/12/08 12:12:08;;;;;;;10.27;2.80;;;7.40;99.90;;;;;;5068560;28;20346;-72
2021/12/08 12:14:34;;;;;;;10.02;3.38;;;7.40;99.90;;;;;;5069620;28;20048;-72
2021/12/08 12:17:00;;;;;;;10.45;3.25;;;7.40;99.90;;;;;;5046118;28;20056;-72
2021/12/08 12:19:30;;;;;;;10.90;3.15;;;7.40;99.90;;;;;;5047578;28;20478;-73
2021/12/08 12:22:04;;;;;;;9.05;2.78;;;7.40;99.90;;;;;;5050794;28;20051;-73
2021/12/08 12:24:56;;;;;;;9.65;3.10;;;7.30;99.90;;;;;;5067751;28;20036;-72
2021/12/08 12:27:54;;;;;;;10.10;2.75;;;7.30;99.90;;;;;;5068775;28;20516;-72
2021/12/08 12:30:38;;;;;;;10.63;3.05;;;7.20;99.90;;;;;;5068896;28;20109;-73
2021/12/08 12:33:17;;;;;;;13.02;3.45;;;7.10;99.90;;;;;;5033611;28;20045;-73
2021/12/08 12:35:49;;;;;;;10.02;3.10;;;7.10;99.90;;;;;;5050472;28;20497;-73
2021/12/08 12:38:15;;;;;;;11.10;3.10;;;7.00;99.90;;;;;;5052226;28;20049;-73
2021/12/08 12:40:48;;;;;;;12.35;3.67;;;7.10;99.90;;;;;;5049712;28;20052;-74
2021/12/08 12:43:37;;;;;;;7.88;3.00;;;7.10;99.90;;;;;;5053795;28;20055;-74
2021/12/08 12:46:12;;;;;;;9.20;3.10;;;7.00;99.90;;;;;;5058233;28;20486;-74
2021/12/08 12:48:38;;;;;;;9.55;3.40;;;7.00;99.90;;;;;;5035665;28;20045;-73
2021/12/08 12:51:09;;;;;;;9.70;3.15;;;7.00;99.90;;;;;;5031393;28;20542;-73
2021/12/08 12:53:46;;;;;;;9.77;2.90;;;7.00;99.90;;;;;;5030229;28;20056;-73
2021/12/08 12:56:34;;;;;;;7.15;3.13;;;6.90;99.90;;;;;;5030497;28;20497;-73
2021/12/08 12:59:11;;;;;;;10.20;3.60;;;6.90;99.90;;;;;;5043702;28;20080;-74
2021/12/08 13:01:44;;;;;;;8.90;3.00;;;7.00;99.90;;;;;;5060929;28;20068;-73
2021/12/08 13:04:20;;;;;;;8.63;3.15;;;7.00;99.90;;;;;;5047661;28;20045;-73
2021/12/08 13:07:00;;;;;;;10.77;3.42;;;7.70;99.90;;;;;;5055902;28;20171;-72
2021/12/08 13:09:42;;;;;;;9.32;3.20;;;6.90;99.90;;;;;;5043837;28;20369;-73
2021/12/08 13:12:17;;;;;;;7.85;3.20;;;7.00;99.90;;;;;;5045356;28;20045;-74
2021/12/08 13:14:45;;;;;;;11.30;3.30;;;6.80;99.90;;;;;;5067039;28;20048;-73
2021/12/08 13:17:16;;;;;;;9.35;2.92;;;7.00;99.90;;;;;;5035127;28;20094;-72
2021/12/08 13:19:49;;;;;;;8.98;2.90;;;7.60;99.90;;;;;;5061868;28;20340;-72
2021/12/08 13:22:45;;;;;;;8.68;2.78;;;7.10;99.90;;;;;;5048165;28;20045;-72
2021/12/08 13:28:27;;;;;;;6.65;2.75;;;6.90;99.90;;;;;;5054188;28;20076;-72
2021/12/08 13:31:12;;;;;;;9.07;2.80;;;7.00;99.90;;;;;;5065937;28;20036;-72
2021/12/08 13:33:54;;;;;;;9.20;3.05;;;7.00;99.90;;;;;;5047257;28;20055;-73
2021/12/08 13:36:19;;;;;;;9.35;3.05;;;7.00;99.90;;;;;;5046993;28;20045;-72
2021/12/08 13:38:57;;;;;;;11.52;3.15;;;7.00;99.90;;;;;;5028871;28;20040;-72
2021/12/08 13:41:33;;;;;;;7.90;2.97;;;7.00;99.90;;;;;;5027977;28;20041;-72
2021/12/08 13:44:02;;;;;;;10.40;3.00;;;6.90;99.90;;;;;;5013932;28;20390;-72
2021/12/08 13:46:55;;;;;;;7.18;3.35;;;7.70;99.90;;;;;;5048347;28;20123;-72
2021/12/08 13:49:27;;;;;;;7.68;2.80;;;6.80;99.90;;;;;;5011803;28;20049;-73
2021/12/08 13:52:14;;;;;;;7.57;2.95;;;6.80;99.90;;;;;;5030372;28;20052;-72
2021/12/08 13:54:43;;;;;;;10.68;3.13;;;6.90;99.90;;;;;;5048023;28;20090;-72
2021/12/08 13:57:26;;;;;;;9.52;2.83;;;7.50;99.90;;;;;;5050322;28;20044;-72
2021/12/08 14:00:16;;;;;;;9.25;2.95;;;7.20;99.90;;;;;;5048392;28;20241;-71
2021/12/08 14:02:49;;;;;;;8.25;3.05;;;7.20;99.90;;;;;;5029966;28;20057;-72
2021/12/08 14:05:28;;;;;;;9.10;2.95;;;7.10;99.90;;;;;;5039548;28;20121;-72